createdAt,value
2022-12-08T00:02:33.655Z,88.72
2022-12-08T00:05:39.144Z,89.36
2022-12-08T00:08:44.742Z,88.58
2022-12-08T00:11:31.657Z,88.20
2022-12-08T00:14:18.990Z,87.84
2022-12-08T00:17:07.729Z,87.43
2022-12-08T00:19:54.710Z,88.31
2022-12-08T00:22:41.628Z,88.13
2022-12-08T00:25:28.569Z,88.32
2022-12-08T00:28:15.509Z,87.97
2022-12-08T00:31:08.760Z,87.44
2022-12-08T00:33:55.749Z,88.16
2022-12-08T00:36:42.894Z,87.54
2022-12-08T00:39:29.900Z,88.00
2022-12-08T00:42:17.212Z,88.53
2022-12-08T00:45:04.644Z,88.10
2022-12-08T00:47:51.573Z,87.22
2022-12-08T00:50:38.485Z,89.57
2022-12-08T00:53:25.504Z,89.51
2022-12-08T00:56:12.383Z,89.08
2022-12-08T00:58:59.585Z,89.69
2022-12-08T01:01:47.495Z,88.75
2022-12-08T01:04:34.409Z,89.10
2022-12-08T01:07:21.336Z,89.52
2022-12-08T01:10:08.897Z,90.01
2022-12-08T01:12:55.783Z,89.49
2022-12-08T01:15:42.727Z,88.75
2022-12-08T01:18:29.748Z,89.21
2022-12-08T01:21:17.392Z,90.23
2022-12-08T01:24:04.960Z,89.29
2022-12-08T01:26:51.932Z,89.78
2022-12-08T01:29:38.896Z,90.52
2022-12-08T01:32:25.888Z,90.51
2022-12-08T01:35:13.704Z,90.20
2022-12-08T01:38:00.596Z,90.87
2022-12-08T01:40:47.548Z,91.00
2022-12-08T01:43:54.347Z,90.58
2022-12-08T01:46:43.677Z,90.29
2022-12-08T01:49:34.724Z,91.14
2022-12-08T01:52:35.616Z,91.37
2022-12-08T01:55:53.858Z,90.39
2022-12-08T01:58:47.930Z,89.63
2022-12-08T02:01:34.993Z,89.71
2022-12-08T02:04:22.008Z,89.41
2022-12-08T02:07:12.584Z,90.64
2022-12-08T02:10:00.117Z,89.65
2022-12-08T02:12:48.877Z,90.77
2022-12-08T02:16:00.363Z,90.98
2022-12-08T02:19:34.305Z,91.34
2022-12-08T02:22:32.831Z,91.72
2022-12-08T02:25:35.631Z,91.70
2022-12-08T02:29:04.167Z,91.50
2022-12-08T02:32:44.823Z,92.48
2022-12-08T02:35:46.653Z,92.67
2022-12-08T02:39:03.676Z,92.18
2022-12-08T02:42:12.371Z,91.83
2022-12-08T02:45:51.974Z,91.29
2022-12-08T02:48:39.992Z,91.91
2022-12-08T02:51:26.951Z,91.79
2022-12-08T02:54:15.129Z,91.26
2022-12-08T02:57:32.029Z,91.70
2022-12-08T03:00:21.606Z,90.67
2022-12-08T03:03:35.024Z,91.13
2022-12-08T03:06:57.591Z,91.34
2022-12-08T03:09:56.458Z,91.76
2022-12-08T03:12:49.608Z,91.92
2022-12-08T03:15:38.909Z,91.76
2022-12-08T03:18:31.696Z,91.86
2022-12-08T03:21:20.631Z,92.18
2022-12-08T03:24:10.445Z,91.67
2022-12-08T03:27:03.777Z,92.16
2022-12-08T03:29:53.422Z,92.82
2022-12-08T03:32:47.948Z,91.84
2022-12-08T03:35:39.292Z,91.37
2022-12-08T03:38:26.297Z,91.67
2022-12-08T03:41:19.118Z,91.24
2022-12-08T03:44:06.217Z,91.01
2022-12-08T03:46:53.153Z,91.34
2022-12-08T03:49:40.853Z,91.56
2022-12-08T03:52:28.000Z,92.65
2022-12-08T03:55:15.727Z,93.19
2022-12-08T03:58:02.655Z,93.25
2022-12-08T04:00:49.857Z,93.55
2022-12-08T04:03:36.958Z,94.07
2022-12-08T04:06:24.351Z,93.86
2022-12-08T04:09:11.335Z,93.45
2022-12-08T04:11:58.257Z,92.52
2022-12-08T04:14:45.175Z,91.94
2022-12-08T04:17:32.141Z,92.63
2022-12-08T04:20:19.049Z,93.26
2022-12-08T04:23:05.968Z,92.45
2022-12-08T04:25:54.538Z,92.25
2022-12-08T04:28:41.510Z,91.83
2022-12-08T04:31:28.444Z,91.93
2022-12-08T04:34:15.524Z,92.61
2022-12-08T04:37:02.446Z,92.95
2022-12-08T04:39:49.367Z,93.52
2022-12-08T04:42:36.431Z,93.28
2022-12-08T04:45:23.355Z,93.32
2022-12-08T04:48:13.151Z,94.04
2022-12-08T04:51:00.180Z,93.30
2022-12-08T04:53:47.383Z,93.99
2022-12-08T04:56:34.476Z,94.29
2022-12-08T04:59:21.360Z,93.68
2022-12-08T05:02:08.685Z,93.88
2022-12-08T05:04:55.697Z,94.37
2022-12-08T05:07:42.670Z,94.89
2022-12-08T05:10:29.609Z,94.53
2022-12-08T05:13:16.646Z,94.05
2022-12-08T05:16:09.956Z,94.29
2022-12-08T05:18:56.888Z,94.81
2022-12-08T05:21:44.401Z,94.97
2022-12-08T05:24:31.351Z,94.31
2022-12-08T05:27:18.295Z,93.06
2022-12-08T05:30:06.537Z,92.87
2022-12-08T05:32:53.619Z,92.93
2022-12-08T05:35:40.616Z,93.07
2022-12-08T05:38:27.552Z,92.94
2022-12-08T05:41:20.511Z,91.99
2022-12-08T05:44:07.379Z,91.72
2022-12-08T05:46:54.356Z,92.13
2022-12-08T05:49:41.249Z,91.65
2022-12-08T05:52:28.357Z,92.04
2022-12-08T05:55:15.331Z,90.77
2022-12-08T05:58:07.658Z,91.61
2022-12-08T06:00:54.980Z,91.62
2022-12-08T06:03:41.944Z,91.84
2022-12-08T06:06:29.823Z,90.80
2022-12-08T06:09:17.035Z,91.61
2022-12-08T06:12:04.155Z,91.40
2022-12-08T06:14:51.197Z,91.90
2022-12-08T06:17:38.117Z,91.95
2022-12-08T06:20:25.068Z,91.98
2022-12-08T06:23:12.012Z,92.31
2022-12-08T06:26:03.656Z,92.02
2022-12-08T06:28:51.159Z,92.30
2022-12-08T06:31:38.305Z,91.98
2022-12-08T06:34:25.424Z,91.58
2022-12-08T06:37:12.367Z,91.37
2022-12-08T06:39:59.413Z,92.13
2022-12-08T06:42:47.293Z,92.01
2022-12-08T06:45:34.321Z,91.62
2022-12-08T06:48:21.283Z,91.45
2022-12-08T06:51:13.777Z,91.52
2022-12-08T06:54:01.493Z,91.81
2022-12-08T06:56:48.368Z,91.84
2022-12-08T06:59:35.328Z,92.43
2022-12-08T07:02:22.769Z,92.17
2022-12-08T07:05:09.698Z,92.09
2022-12-08T07:07:56.674Z,92.87
2022-12-08T07:10:46.572Z,92.55
2022-12-08T07:13:33.427Z,93.75
2022-12-08T07:16:20.464Z,93.89
2022-12-08T07:19:07.492Z,93.81
2022-12-08T07:21:54.421Z,94.09
2022-12-08T07:24:41.266Z,93.08
2022-12-08T07:27:28.653Z,93.37
2022-12-08T07:30:15.622Z,92.92
2022-12-08T07:33:04.798Z,92.75
2022-12-08T07:36:00.041Z,92.22
2022-12-08T07:38:47.632Z,91.41
2022-12-08T07:41:34.555Z,91.35
2022-12-08T07:44:21.441Z,90.80
2022-12-08T07:47:08.335Z,91.05
2022-12-08T07:49:55.242Z,90.77
2022-12-08T07:52:42.066Z,89.82
2022-12-08T07:55:29.023Z,90.51
2022-12-08T07:58:15.838Z,91.17
2022-12-08T08:01:03.324Z,90.14
2022-12-08T08:03:50.345Z,89.65
2022-12-08T08:06:37.987Z,90.05
2022-12-08T08:09:04.651Z,89.99
2022-12-08T08:11:31.209Z,90.72
2022-12-08T08:13:58.233Z,91.36
2022-12-08T08:16:24.937Z,91.01
2022-12-08T08:18:51.774Z,90.61
2022-12-08T08:21:44.418Z,91.22
2022-12-08T08:24:06.265Z,91.30
2022-12-08T08:26:32.861Z,90.37
2022-12-08T08:28:59.440Z,89.66
2022-12-08T08:31:27.068Z,89.71
2022-12-08T08:33:54.059Z,89.93
2022-12-08T08:36:22.090Z,90.76
2022-12-08T08:38:48.790Z,90.91
2022-12-08T08:41:15.379Z,90.76
2022-12-08T08:43:41.965Z,90.67
2022-12-08T08:46:09.111Z,89.53
2022-12-08T08:48:36.275Z,89.32
2022-12-08T08:51:11.627Z,89.31
2022-12-08T08:53:38.408Z,89.28
2022-12-08T08:56:13.517Z,88.25
2022-12-08T08:58:40.754Z,87.97
2022-12-08T09:01:07.657Z,87.56
2022-12-08T09:03:34.588Z,86.88
2022-12-08T09:06:01.202Z,85.92
2022-12-08T09:08:27.879Z,85.50
2022-12-08T09:10:55.074Z,85.04
2022-12-08T09:13:22.383Z,85.19
2022-12-08T09:15:49.253Z,85.43
2022-12-08T09:18:15.859Z,84.74
2022-12-08T09:20:42.537Z,85.27
2022-12-08T09:23:09.094Z,85.12
2022-12-08T09:25:35.677Z,84.71
2022-12-08T09:28:02.276Z,84.12
2022-12-08T09:30:28.858Z,83.94
2022-12-08T09:32:55.484Z,84.23
2022-12-08T09:35:22.058Z,85.00
2022-12-08T09:37:48.574Z,84.41
2022-12-08T09:40:18.921Z,85.30
2022-12-08T09:43:24.593Z,84.71
2022-12-08T09:45:51.783Z,84.44
2022-12-08T09:48:23.290Z,85.59
2022-12-08T09:50:58.027Z,85.51
2022-12-08T09:53:37.116Z,84.79
2022-12-08T09:56:17.015Z,85.12
2022-12-08T09:59:32.365Z,85.20
2022-12-08T10:02:01.053Z,84.24
2022-12-08T10:04:38.553Z,84.86
2022-12-08T10:07:48.330Z,83.67
2022-12-08T10:11:04.528Z,83.57
2022-12-08T10:13:40.488Z,84.01
2022-12-08T10:16:30.387Z,83.58
2022-12-08T10:19:09.246Z,84.14
2022-12-08T10:21:35.863Z,83.66
2022-12-08T10:24:11.459Z,82.34
2022-12-08T10:26:38.249Z,83.23
2022-12-08T10:29:06.502Z,84.17
2022-12-08T10:31:33.304Z,83.41
2022-12-08T10:34:01.992Z,83.34
2022-12-08T10:36:57.405Z,84.41
2022-12-08T10:39:38.905Z,83.97
2022-12-08T10:42:20.749Z,84.38
2022-12-08T10:45:03.999Z,84.79
2022-12-08T10:47:37.011Z,84.04
2022-12-08T10:50:27.912Z,84.59
2022-12-08T10:53:28.959Z,83.63
2022-12-08T10:56:16.197Z,84.00
2022-12-08T10:58:47.881Z,84.78
2022-12-08T11:01:24.035Z,85.22
2022-12-08T11:03:52.065Z,86.09
2022-12-08T11:06:20.524Z,86.30
2022-12-08T11:09:36.381Z,85.33
2022-12-08T11:12:30.504Z,86.81
2022-12-08T11:15:03.380Z,86.55
2022-12-08T11:17:39.436Z,85.63
2022-12-08T11:20:24.205Z,85.67
2022-12-08T11:22:55.893Z,84.70
2022-12-08T11:25:27.716Z,84.55
2022-12-08T11:27:58.132Z,83.68
2022-12-08T11:30:31.851Z,83.60
2022-12-08T11:33:18.317Z,84.30
2022-12-08T11:35:50.041Z,85.80
2022-12-08T11:38:22.704Z,84.08
2022-12-08T11:40:58.556Z,83.42
2022-12-08T11:43:58.616Z,82.94
2022-12-08T11:46:32.505Z,83.12
2022-12-08T11:49:13.082Z,82.45
2022-12-08T11:52:02.722Z,83.02
2022-12-08T11:54:38.833Z,82.59
2022-12-08T11:57:10.839Z,84.31
2022-12-08T11:59:50.865Z,83.80
2022-12-08T12:02:25.380Z,84.80
2022-12-08T12:06:08.594Z,85.16
2022-12-08T12:09:22.922Z,85.71
2022-12-08T12:12:26.643Z,85.79
2022-12-08T12:15:52.632Z,84.69
2022-12-08T12:44:38.159Z,82.18
2022-12-08T12:47:11.554Z,83.95
2022-12-08T12:50:06.565Z,84.14
2022-12-08T12:52:37.661Z,85.17
2022-12-08T12:55:50.284Z,83.66
2022-12-08T12:58:53.646Z,85.07
2022-12-08T13:01:37.997Z,85.46
2022-12-08T13:04:11.089Z,85.14
2022-12-08T13:06:48.570Z,84.91
2022-12-08T13:09:21.643Z,84.89
2022-12-08T13:11:54.937Z,83.47
2022-12-08T13:14:34.507Z,84.72
2022-12-08T13:17:05.129Z,84.38
2022-12-08T13:19:33.116Z,85.31
2022-12-08T13:22:00.249Z,86.23
2022-12-08T13:24:33.907Z,83.88
2022-12-08T13:27:32.377Z,85.33
2022-12-08T13:30:36.398Z,85.26
2022-12-08T13:33:19.363Z,84.05
2022-12-08T13:35:56.476Z,84.38
2022-12-08T13:38:29.209Z,84.66
2022-12-08T13:40:57.156Z,84.69
2022-12-08T13:44:20.252Z,84.88
2022-12-08T13:58:37.786Z,85.67
2022-12-08T14:01:15.147Z,85.84
2022-12-08T14:04:31.093Z,85.43
2022-12-08T14:06:48.782Z,86.01
2022-12-08T14:09:23.971Z,86.22
2022-12-08T14:12:05.399Z,86.48
2022-12-08T14:15:02.423Z,86.88
2022-12-08T14:17:30.621Z,86.25
2022-12-08T14:20:25.679Z,86.98
2022-12-08T14:22:53.648Z,86.75
2022-12-08T14:25:21.192Z,87.12
2022-12-08T14:27:48.725Z,86.54
2022-12-08T14:30:28.684Z,86.94
2022-12-08T14:33:01.034Z,86.67
2022-12-08T14:35:38.322Z,86.47
2022-12-08T14:38:13.201Z,86.89
2022-12-08T14:40:47.214Z,86.63
2022-12-08T14:43:26.301Z,86.05
2022-12-08T14:45:56.177Z,86.00
2022-12-08T14:48:42.733Z,86.12
2022-12-08T14:51:31.610Z,86.34
2022-12-08T14:54:22.777Z,85.40
2022-12-08T14:56:53.013Z,85.25
2022-12-08T14:59:31.121Z,85.31
2022-12-08T15:02:31.374Z,86.07
2022-12-08T15:05:04.934Z,86.53
2022-12-08T15:07:47.287Z,87.06
2022-12-08T15:10:26.668Z,86.54
2022-12-08T15:13:31.618Z,87.60
2022-12-08T15:15:58.537Z,86.18
2022-12-08T15:19:02.012Z,87.12
2022-12-08T15:21:31.039Z,88.07
2022-12-08T15:23:57.634Z,87.38
2022-12-08T15:26:26.312Z,87.39
2022-12-08T15:28:53.433Z,87.01
2022-12-08T15:31:20.897Z,86.87
2022-12-08T15:33:48.236Z,86.72
2022-12-08T15:36:14.758Z,86.72
2022-12-08T15:38:42.870Z,86.24
2022-12-08T15:41:14.633Z,86.64
2022-12-08T15:43:41.942Z,87.85
2022-12-08T15:46:08.594Z,87.38
2022-12-08T15:48:37.365Z,88.27
2022-12-08T15:51:04.088Z,87.15
2022-12-08T15:53:32.124Z,88.29
2022-12-08T15:58:55.522Z,88.45
2022-12-08T16:01:23.369Z,89.61
2022-12-08T16:09:31.272Z,88.72
2022-12-08T16:12:16.840Z,89.46
2022-12-08T16:17:31.568Z,90.82
2022-12-08T16:19:59.208Z,90.55
2022-12-08T16:25:20.384Z,90.96
2022-12-08T16:28:44.798Z,91.32
2022-12-08T16:30:40.102Z,92.68
2022-12-08T16:33:06.927Z,91.22
2022-12-08T16:35:33.572Z,92.31
2022-12-08T16:38:00.242Z,92.24
2022-12-08T16:40:26.864Z,92.62
2022-12-08T16:42:53.504Z,92.92
2022-12-08T16:45:25.965Z,93.76
2022-12-08T16:47:56.990Z,93.85
2022-12-08T16:50:26.766Z,93.49
2022-12-08T16:52:59.904Z,93.12
2022-12-08T16:55:27.069Z,93.10
2022-12-08T16:57:54.255Z,93.10
2022-12-08T17:00:23.736Z,93.19
2022-12-08T17:02:51.697Z,93.43
2022-12-08T17:05:20.360Z,93.30
2022-12-08T17:07:49.087Z,92.95
2022-12-08T17:10:18.814Z,93.13
2022-12-08T17:12:46.007Z,92.69
2022-12-08T17:15:19.776Z,93.16
2022-12-08T17:17:46.451Z,92.36
2022-12-08T17:20:16.011Z,93.28
2022-12-08T17:22:42.626Z,93.50
2022-12-08T17:25:09.678Z,95.02
2022-12-08T17:27:36.996Z,95.42
2022-12-08T17:30:05.174Z,95.22
2022-12-08T17:32:32.154Z,95.15
2022-12-08T17:34:58.865Z,95.18
2022-12-08T17:37:26.200Z,95.39
2022-12-08T17:39:52.848Z,95.77
2022-12-08T17:42:19.455Z,95.48
2022-12-08T17:44:46.756Z,94.31
2022-12-08T17:47:13.298Z,94.10
2022-12-08T17:49:39.847Z,93.38
2022-12-08T17:52:10.768Z,93.82
2022-12-08T17:54:37.900Z,93.35
2022-12-08T17:57:05.543Z,93.02
2022-12-08T17:59:32.903Z,92.76
2022-12-08T18:01:59.739Z,93.21
2022-12-08T18:04:27.801Z,93.05
2022-12-08T18:06:54.978Z,93.66
2022-12-08T18:09:21.799Z,94.18
2022-12-08T18:11:48.435Z,94.17
2022-12-08T18:14:16.074Z,94.25
2022-12-08T18:16:45.218Z,94.10
2022-12-08T18:19:13.186Z,95.07
2022-12-08T18:21:41.456Z,94.79
2022-12-08T18:24:14.282Z,94.59
2022-12-08T18:26:40.869Z,94.20
2022-12-08T18:29:07.444Z,94.41
2022-12-08T18:31:34.160Z,94.42
2022-12-08T18:34:00.735Z,94.87
2022-12-08T18:36:28.836Z,95.47
2022-12-08T18:38:55.710Z,95.58
2022-12-08T18:41:25.672Z,96.25
2022-12-08T18:43:54.279Z,95.93
2022-12-08T18:46:21.345Z,96.07
2022-12-08T18:48:49.645Z,96.27
2022-12-08T18:51:18.921Z,96.52
2022-12-08T18:53:46.734Z,95.84
2022-12-08T18:56:31.246Z,96.30
2022-12-08T18:59:03.356Z,96.24
2022-12-08T19:01:35.409Z,96.38
2022-12-08T19:04:27.274Z,96.24
2022-12-08T19:06:52.772Z,96.34
2022-12-08T19:09:19.935Z,97.00
2022-12-08T19:11:46.567Z,97.11
2022-12-08T19:14:13.316Z,96.90
2022-12-08T19:16:39.911Z,96.56
2022-12-08T19:19:06.504Z,96.86
2022-12-08T19:21:34.124Z,97.10
2022-12-08T19:24:01.545Z,97.03
2022-12-08T19:26:28.764Z,97.71
2022-12-08T19:28:56.207Z,97.36
2022-12-08T19:31:23.063Z,97.79
2022-12-08T19:33:49.764Z,96.85
2022-12-08T19:36:19.154Z,96.17
2022-12-08T19:39:04.506Z,96.99
2022-12-08T19:41:50.282Z,96.07
2022-12-08T19:44:48.737Z,95.84
2022-12-08T19:47:15.604Z,95.63
2022-12-08T19:49:42.294Z,95.90
2022-12-08T19:52:09.171Z,96.08
2022-12-08T19:54:36.111Z,96.15
2022-12-08T19:57:03.182Z,95.78
2022-12-08T19:59:30.338Z,95.56
2022-12-08T20:01:58.623Z,95.55
2022-12-08T20:04:26.849Z,95.89
2022-12-08T20:06:55.423Z,96.79
2022-12-08T20:09:23.504Z,97.20
2022-12-08T20:11:50.882Z,97.23
2022-12-08T20:14:21.208Z,96.78
2022-12-08T20:16:47.984Z,96.54
2022-12-08T20:19:14.613Z,96.51
2022-12-08T20:21:41.199Z,96.44
2022-12-08T20:24:08.037Z,96.38
2022-12-08T20:26:34.757Z,96.47
2022-12-08T20:29:01.384Z,96.75
2022-12-08T20:31:30.562Z,96.06
2022-12-08T20:33:57.298Z,95.88
2022-12-08T20:36:24.403Z,96.49
2022-12-08T20:38:52.872Z,97.56
2022-12-08T20:41:20.420Z,97.19
2022-12-08T20:43:47.841Z,97.54
2022-12-08T20:46:16.996Z,97.70
2022-12-08T20:48:44.598Z,97.53
2022-12-08T20:51:19.313Z,97.89
2022-12-08T20:53:46.752Z,97.34
2022-12-08T20:56:15.688Z,97.38
2022-12-08T20:58:42.906Z,97.91
2022-12-08T21:01:14.401Z,98.17
2022-12-08T21:03:41.702Z,98.09
2022-12-08T21:06:08.900Z,98.41
2022-12-08T21:08:35.993Z,98.76
2022-12-08T21:11:03.486Z,98.39
2022-12-08T21:13:30.205Z,97.66
2022-12-08T21:15:57.552Z,96.81
2022-12-08T21:18:24.555Z,96.77
2022-12-08T21:20:51.912Z,96.16
2022-12-08T21:23:19.239Z,96.02
2022-12-08T21:25:47.352Z,95.77
2022-12-08T21:28:13.968Z,95.37
2022-12-08T21:30:41.751Z,95.77
2022-12-08T21:33:08.719Z,96.24
2022-12-08T21:35:35.426Z,96.41
2022-12-08T21:38:02.208Z,96.51
2022-12-08T21:40:28.975Z,97.20
2022-12-08T21:42:55.739Z,97.38
2022-12-08T21:45:22.653Z,96.96
2022-12-08T21:47:50.695Z,96.41
2022-12-08T21:50:18.601Z,96.28
2022-12-08T21:52:47.944Z,95.55
2022-12-08T21:55:16.372Z,96.03
2022-12-08T21:57:43.240Z,95.75
2022-12-08T22:00:13.385Z,95.46
2022-12-08T22:02:40.649Z,95.69
2022-12-08T22:05:07.912Z,95.47
2022-12-08T22:07:38.423Z,95.81
2022-12-08T22:10:07.707Z,95.70
2022-12-08T22:12:35.977Z,95.33
2022-12-08T22:15:05.748Z,95.24
2022-12-08T22:17:36.439Z,95.46
2022-12-08T22:20:08.102Z,95.78
2022-12-08T22:22:35.374Z,95.77
2022-12-08T22:25:03.267Z,95.70
2022-12-08T22:27:30.110Z,95.39
2022-12-08T22:29:56.757Z,96.29
2022-12-08T22:32:23.502Z,96.66
2022-12-08T22:34:50.127Z,96.38
2022-12-08T22:37:16.856Z,96.87
2022-12-08T22:39:43.475Z,97.03
2022-12-08T22:42:10.111Z,97.10
2022-12-08T22:44:36.677Z,96.82
2022-12-08T22:47:03.511Z,96.34
2022-12-08T22:49:31.634Z,96.38
2022-12-08T22:51:58.512Z,95.77
2022-12-08T22:54:25.100Z,96.12
2022-12-08T22:56:52.345Z,96.49
2022-12-08T22:59:18.876Z,97.33
2022-12-08T23:01:45.399Z,98.18
2022-12-08T23:04:17.428Z,99.36
2022-12-08T23:06:44.829Z,98.06
2022-12-08T23:09:11.860Z,97.36
2022-12-08T23:11:38.726Z,96.79
2022-12-08T23:14:05.326Z,95.60
2022-12-08T23:16:33.559Z,95.52
2022-12-08T23:19:00.346Z,95.49
2022-12-08T23:21:27.206Z,95.51
2022-12-08T23:23:53.980Z,96.13
2022-12-08T23:26:26.915Z,96.67
2022-12-08T23:28:54.050Z,97.15
2022-12-08T23:31:21.512Z,96.68
2022-12-08T23:33:48.767Z,96.42
2022-12-08T23:36:16.673Z,96.97
2022-12-08T23:38:43.766Z,97.37
2022-12-08T23:41:11.842Z,97.17
2022-12-08T23:43:46.269Z,97.21
2022-12-08T23:46:15.122Z,96.82
2022-12-08T23:48:42.149Z,96.92
2022-12-08T23:51:09.247Z,96.63
2022-12-08T23:53:35.940Z,96.78
2022-12-08T23:56:05.743Z,96.56
2022-12-08T23:58:33.359Z,96.38
